Current Conditions
Partly Cloudy
Conditions



Pressure
1008.81 (hPa) - 29.79 (inHG)
Visibility

9.7 (km) - 6.0 (miles)
Temperature
27  °C
Temperature
22  °C
Dewpoint
74  %
 Humidity
Wind Speed
3  km/h
2  kts
2  mph
0.9  m/s
Wind Direction
N
45°
E
90°
135°
S
180°
225°
W
270°
315°
Calm

Due North
Airport Data
LGTS
Thessaloniki Macedonia International Airport
Metar :LGTS 222250Z VRB02KT 9999 FEW030 27/22 Q1009 NOSIG
Tue 23rd July 01:50 am
Raw Metar Info
Raw METAR is the most common format in the world for the transmission of observational weather data. It is highly standardized through the International Civil Aviation Organization (ICAO), which allows it to be understood throughout most of the world.
API Info
Data Provided by
https://www.checkwx.com/weather/LGTS

Aviation Weather providing METAR, TAF, AIRMET, SIGMET and OUTLOOK Weather Reports
© Info
CSS/SVG/PHP scripts were developed by weather34 for use in the weather34 template © 2015-2024

Guide Info provided by Metar-Wikipedia